TimeCST,TemperatureF,Dew PointF,Humidity,Sea Level PressureIn,VisibilityMPH,Wind Direction,Wind SpeedMPH,Gust SpeedMPH,PrecipitationIn,Events,Conditions,WindDirDegrees,DateUTC
12:53 AM,8.1,-0.9,67,30.65,10.0,North,9.2,-,N/A,,Clear,360,2013-12-07 06:53:00
1:53 AM,8.1,-2.0,64,30.64,10.0,North,11.5,-,N/A,,Clear,360,2013-12-07 07:53:00
2:53 AM,8.1,-0.9,67,30.65,10.0,North,10.4,-,N/A,,Clear,360,2013-12-07 08:53:00
3:53 AM,7.0,-2.0,67,30.65,10.0,North,12.7,-,N/A,,Clear,360,2013-12-07 09:53:00
4:53 AM,6.1,-2.0,69,30.65,10.0,North,10.4,-,N/A,,Clear,10,2013-12-07 10:53:00
5:53 AM,6.1,-2.0,69,30.65,10.0,North,11.5,-,N/A,,Clear,10,2013-12-07 11:53:00
6:53 AM,6.1,-2.9,67,30.66,10.0,North,11.5,-,N/A,,Clear,10,2013-12-07 12:53:00
7:53 AM,5.0,-2.0,73,30.66,9.0,North,10.4,-,N/A,,Clear,10,2013-12-07 13:53:00
8:53 AM,8.1,-0.9,67,30.68,8.0,NNE,11.5,-,N/A,,Clear,20,2013-12-07 14:53:00
9:53 AM,10.0,-0.0,64,30.69,9.0,NNE,10.4,-,N/A,,Clear,30,2013-12-07 15:53:00
10:53 AM,12.9,1.9,62,30.66,8.0,NE,9.2,-,N/A,,Partly Cloudy,40,2013-12-07 16:53:00
11:53 AM,16.0,3.0,57,30.60,9.0,NNE,12.7,-,N/A,,Overcast,20,2013-12-07 17:53:00
12:53 PM,18.0,3.0,52,30.54,9.0,NNE,11.5,-,N/A,,Clear,20,2013-12-07 18:53:00
1:53 PM,19.0,5.0,54,30.49,9.0,ENE,8.1,-,N/A,,Mostly Cloudy,60,2013-12-07 19:53:00
2:53 PM,19.0,3.9,52,30.47,9.0,ENE,5.8,-,N/A,,Overcast,60,2013-12-07 20:53:00
3:53 PM,19.9,3.9,50,30.47,9.0,NE,3.5,-,N/A,,Overcast,50,2013-12-07 21:53:00
4:53 PM,19.9,5.0,52,30.45,8.0,NE,8.1,-,N/A,,Overcast,40,2013-12-07 22:53:00
5:53 PM,19.9,7.0,57,30.41,8.0,ENE,13.8,-,N/A,,Overcast,60,2013-12-07 23:53:00
6:53 PM,19.9,7.0,57,30.42,9.0,East,6.9,-,N/A,,Overcast,80,2013-12-08 00:53:00
7:53 PM,19.9,7.0,57,30.39,10.0,East,9.2,-,N/A,,Overcast,90,2013-12-08 01:53:00
8:53 PM,19.9,7.0,57,30.37,9.0,ESE,10.4,-,N/A,,Overcast,110,2013-12-08 02:53:00
9:53 PM,19.9,7.0,57,30.36,9.0,ESE,6.9,-,N/A,,Overcast,110,2013-12-08 03:53:00
10:11 PM,19.4,8.6,63,30.29,9.0,ESE,6.9,-,N/A,,Overcast,120,2013-12-08 04:11:00
10:53 PM,19.9,8.1,60,30.33,9.0,ESE,6.9,-,N/A,,Overcast,120,2013-12-08 04:53:00
11:53 PM,19.9,9.0,62,30.29,9.0,SE,8.1,-,N/A,,Overcast,130,2013-12-08 05:53:00